createdAt,value
2022-12-03T00:01:00.409Z,45.98
2022-12-03T00:01:51.152Z,46.03
2022-12-03T00:02:51.166Z,46.15
2022-12-03T00:03:51.165Z,46
2022-12-03T00:04:51.152Z,46.03
2022-12-03T00:05:51.152Z,46.01
2022-12-03T00:06:51.166Z,45.95
2022-12-03T00:07:51.166Z,45.95
2022-12-03T00:08:51.153Z,45.93
2022-12-03T00:09:51.167Z,45.95
2022-12-03T00:10:51.166Z,45.95
2022-12-03T00:11:51.166Z,46.05
2022-12-03T00:12:51.153Z,46.06
2022-12-03T00:13:51.166Z,45.85
2022-12-03T00:14:51.209Z,46.31
2022-12-03T00:15:51.167Z,46.33
2022-12-03T00:16:51.154Z,46.28
2022-12-03T00:17:51.167Z,46.26
2022-12-03T00:18:51.168Z,46.32
2022-12-03T00:19:51.168Z,46.33
2022-12-03T00:20:51.154Z,46.24
2022-12-03T00:21:51.168Z,46.39
2022-12-03T00:22:51.167Z,46.3
2022-12-03T00:23:51.154Z,46.28
2022-12-03T00:24:51.154Z,46.27
2022-12-03T00:25:51.168Z,46.22
2022-12-03T00:26:51.168Z,46.27
2022-12-03T00:27:51.155Z,46.25
2022-12-03T00:28:51.169Z,46.22
2022-12-03T00:29:51.168Z,46.01
2022-12-03T00:30:51.168Z,46
2022-12-03T00:31:51.155Z,46.03
2022-12-03T00:32:51.169Z,46
2022-12-03T00:33:51.169Z,46.12
2022-12-03T00:34:51.168Z,46.04
2022-12-03T00:35:51.156Z,46.09
2022-12-03T00:36:51.169Z,46.36
2022-12-03T00:37:51.169Z,45.96
2022-12-03T00:38:51.156Z,46.09
2022-12-03T00:39:51.157Z,46.21
2022-12-03T00:40:51.170Z,46.11
2022-12-03T00:41:51.170Z,46.26
2022-12-03T00:42:51.156Z,46.22
2022-12-03T00:43:51.157Z,46.21
2022-12-03T00:44:51.170Z,46.13
2022-12-03T00:45:51.170Z,46.16
2022-12-03T00:46:51.157Z,46.15
2022-12-03T00:47:51.171Z,46.11
2022-12-03T00:48:51.171Z,45.86
2022-12-03T00:49:51.171Z,46
2022-12-03T00:50:51.170Z,46.03
2022-12-03T00:51:51.171Z,45.88
2022-12-03T00:52:51.172Z,45.95
2022-12-03T00:53:51.170Z,46.25
2022-12-03T00:54:51.158Z,46.04
2022-12-03T00:55:51.171Z,46.02
2022-12-03T00:56:51.172Z,45.92
2022-12-03T00:57:51.158Z,46.08
2022-12-03T00:58:51.158Z,46.11
2022-12-03T00:59:51.171Z,45.99
2022-12-03T01:00:51.172Z,46.12
2022-12-03T01:01:51.159Z,46.1
2022-12-03T01:02:51.159Z,46.09
2022-12-03T01:03:51.172Z,46.14
2022-12-03T01:04:51.172Z,46.19
2022-12-03T01:05:51.159Z,46.03
2022-12-03T01:06:51.173Z,45.99
2022-12-03T01:07:51.173Z,45.95
2022-12-03T01:08:51.173Z,45.97
2022-12-03T01:09:51.159Z,45.99
2022-12-03T01:10:51.173Z,46
2022-12-03T01:11:51.172Z,45.93
2022-12-03T01:12:51.172Z,45.66
2022-12-03T01:13:51.160Z,45.85
2022-12-03T01:14:51.174Z,45.66
2022-12-03T01:15:51.174Z,45.91
2022-12-03T01:16:51.173Z,45.94
2022-12-03T01:17:51.160Z,45.83
2022-12-03T01:18:51.174Z,45.73
2022-12-03T01:19:51.173Z,45.94
2022-12-03T01:20:51.161Z,45.8
2022-12-03T01:21:51.161Z,45.76
2022-12-03T01:22:51.174Z,45.93
2022-12-03T01:23:51.174Z,45.71
2022-12-03T01:24:51.161Z,45.82
2022-12-03T01:25:51.175Z,45.8
2022-12-03T01:26:51.175Z,45.81
2022-12-03T01:27:51.174Z,45.91
2022-12-03T01:28:51.162Z,45.82
2022-12-03T01:29:51.175Z,45.97
2022-12-03T01:30:51.176Z,45.85
2022-12-03T01:32:51.163Z,45.86
2022-12-03T01:33:51.175Z,46.01
2022-12-03T01:34:51.176Z,45.96
2022-12-03T01:35:51.162Z,46.11
2022-12-03T01:36:51.163Z,45.99
2022-12-03T01:37:51.176Z,45.74
2022-12-03T01:39:00.434Z,45.95
2022-12-03T01:39:51.163Z,45.89
2022-12-03T01:40:51.163Z,45.89
2022-12-03T01:41:51.177Z,46.14
2022-12-03T01:42:51.176Z,46.1
2022-12-03T01:43:51.163Z,46.03
2022-12-03T01:44:51.177Z,46.04
2022-12-03T01:45:51.177Z,45.92
2022-12-03T01:46:51.177Z,45.99
2022-12-03T01:47:51.164Z,45.96
2022-12-03T01:48:51.178Z,46.08
2022-12-03T01:49:51.179Z,45.97
2022-12-03T01:50:51.177Z,46
2022-12-03T01:51:51.164Z,45.98
2022-12-03T01:52:51.178Z,46.09
2022-12-03T01:53:51.178Z,45.74
2022-12-03T01:54:51.165Z,45.8
2022-12-03T01:55:51.165Z,45.86
2022-12-03T01:56:51.178Z,45.9
2022-12-03T01:57:51.178Z,46.11
2022-12-03T01:58:51.165Z,46.01
2022-12-03T01:59:51.166Z,46.02
2022-12-03T02:00:51.178Z,45.86
2022-12-03T02:01:51.179Z,45.95
2022-12-03T02:02:51.165Z,45.93
2022-12-03T02:03:51.179Z,45.94
2022-12-03T02:04:51.179Z,45.82
2022-12-03T02:05:56.873Z,46.11
2022-12-03T02:06:51.166Z,46.05
2022-12-03T02:07:51.180Z,45.95
2022-12-03T02:08:51.180Z,46.18
2022-12-03T02:09:51.179Z,45.84
2022-12-03T02:10:51.166Z,45.93
2022-12-03T02:11:51.180Z,45.95
2022-12-03T02:12:51.180Z,45.79
2022-12-03T02:13:51.179Z,45.98
2022-12-03T02:14:51.167Z,45.96
2022-12-03T02:15:51.181Z,46.1
2022-12-03T02:16:51.180Z,46.03
2022-12-03T02:17:51.167Z,45.86
2022-12-03T02:18:51.167Z,45.84
2022-12-03T02:19:51.181Z,45.92
2022-12-03T02:20:51.180Z,45.92
2022-12-03T02:21:51.168Z,45.99
2022-12-03T02:22:51.180Z,46.04
2022-12-03T02:23:51.181Z,45.91
2022-12-03T02:24:51.181Z,46.37
2022-12-03T02:25:51.168Z,46.29
2022-12-03T02:26:51.181Z,46.38
2022-12-03T02:27:51.223Z,46.2
2022-12-03T02:28:51.181Z,46.19
2022-12-03T02:29:51.169Z,46.1
2022-12-03T02:30:51.181Z,46
2022-12-03T02:31:51.182Z,46.07
2022-12-03T02:32:51.183Z,46.2
2022-12-03T02:33:51.169Z,46.21
2022-12-03T02:34:51.183Z,46.12
2022-12-03T02:35:51.182Z,46.25
2022-12-03T02:36:51.169Z,46.21
2022-12-03T02:37:51.169Z,46.34
2022-12-03T02:38:51.183Z,46.49
2022-12-03T02:39:51.191Z,46.48
2022-12-03T02:40:51.170Z,46.38
2022-12-03T02:41:51.184Z,46.37
2022-12-03T02:42:51.184Z,46.4
2022-12-03T02:43:51.183Z,46.18
2022-12-03T02:44:51.170Z,46.32
2022-12-03T02:45:51.184Z,45.97
2022-12-03T02:46:51.184Z,46.27
2022-12-03T02:47:51.184Z,46.18
2022-12-03T02:48:51.171Z,46.21
2022-12-03T02:49:51.184Z,46.32
2022-12-03T02:50:51.184Z,46.34
2022-12-03T02:51:51.171Z,46.34
2022-12-03T02:52:51.171Z,46.38
2022-12-03T02:53:51.184Z,46.37
2022-12-03T02:54:51.184Z,46.42
2022-12-03T02:55:51.171Z,46.36
2022-12-03T02:56:51.172Z,46.28
2022-12-03T02:57:51.184Z,46.11
2022-12-03T02:58:51.184Z,46.28
2022-12-03T02:59:51.172Z,46.12
2022-12-03T03:00:51.186Z,46.08
2022-12-03T03:01:51.185Z,46.03
2022-12-03T03:02:51.186Z,45.84
2022-12-03T03:03:51.172Z,46.01
2022-12-03T03:04:51.186Z,46.09
2022-12-03T03:05:54.657Z,46.19
2022-12-03T03:06:51.186Z,45.98
2022-12-03T03:07:51.173Z,46.04
2022-12-03T03:08:51.186Z,46.03
2022-12-03T03:09:51.186Z,46.08
2022-12-03T03:10:51.186Z,46.04
2022-12-03T03:11:51.173Z,45.92
2022-12-03T03:12:51.195Z,46.08
2022-12-03T03:13:51.187Z,45.77
2022-12-03T03:14:51.174Z,45.94
2022-12-03T03:15:51.175Z,45.91
2022-12-03T03:17:00.444Z,46.03
2022-12-03T03:17:51.187Z,45.8
2022-12-03T03:18:51.174Z,45.9
2022-12-03T03:19:51.252Z,45.87
2022-12-03T03:20:51.187Z,46.02
2022-12-03T03:21:51.187Z,45.8
2022-12-03T03:22:51.174Z,45.88
2022-12-03T03:23:51.188Z,45.93
2022-12-03T03:24:51.188Z,45.99
2022-12-03T03:25:51.189Z,46.04
2022-12-03T03:26:51.175Z,45.91
2022-12-03T03:27:51.189Z,45.93
2022-12-03T03:28:51.188Z,45.87
2022-12-03T03:29:51.189Z,45.97
2022-12-03T03:30:51.176Z,46.03
2022-12-03T03:31:51.237Z,45.84
2022-12-03T03:32:51.188Z,45.98
2022-12-03T03:33:51.176Z,46.03
2022-12-03T03:34:51.176Z,46.09
2022-12-03T03:35:51.190Z,46
2022-12-03T03:36:51.189Z,46.15
2022-12-03T03:37:51.176Z,46.08
2022-12-03T03:38:51.190Z,46.07
2022-12-03T03:39:51.190Z,45.99
2022-12-03T03:40:51.189Z,45.87
2022-12-03T03:41:51.177Z,46.05
2022-12-03T03:42:51.191Z,45.95
2022-12-03T03:43:51.241Z,46.16
2022-12-03T03:44:51.190Z,46.12
2022-12-03T03:45:51.178Z,46.09
2022-12-03T03:46:51.191Z,46.14
2022-12-03T03:47:51.190Z,46.05
2022-12-03T03:48:51.190Z,46.05
2022-12-03T03:49:51.178Z,46.19
2022-12-03T03:50:51.191Z,46.16
2022-12-03T03:51:51.190Z,46.08
2022-12-03T03:52:51.178Z,46.19
2022-12-03T03:53:51.178Z,46.2
2022-12-03T03:54:51.191Z,46.14
2022-12-03T03:55:51.192Z,46.26
2022-12-03T03:56:51.178Z,46.24
2022-12-03T03:57:51.192Z,46.22
2022-12-03T03:58:51.192Z,46.36
2022-12-03T03:59:51.191Z,46.19
2022-12-03T04:00:51.179Z,46.35
2022-12-03T04:01:51.193Z,46
2022-12-03T04:02:51.193Z,46.36
2022-12-03T04:03:51.193Z,46.39
2022-12-03T04:04:51.179Z,46.37
2022-12-03T04:05:59.428Z,46.34
2022-12-03T04:06:51.192Z,46.49
2022-12-03T04:07:51.192Z,46.28
2022-12-03T04:08:51.180Z,46.32
2022-12-03T04:09:51.194Z,46.4
2022-12-03T04:10:51.193Z,46.3
2022-12-03T04:11:51.180Z,46.46
2022-12-03T04:12:51.180Z,46.46
2022-12-03T04:13:51.193Z,46.49
2022-12-03T04:14:51.218Z,46.5
2022-12-03T04:15:59.414Z,46.4
2022-12-03T04:16:51.243Z,46.37
2022-12-03T04:17:51.193Z,46.26
2022-12-03T04:18:51.194Z,46.23
2022-12-03T04:19:51.181Z,46.18
2022-12-03T04:20:51.195Z,46.09
2022-12-03T04:21:51.195Z,46.04
2022-12-03T04:22:51.195Z,46.25
2022-12-03T04:23:51.181Z,46.22
2022-12-03T04:24:51.195Z,46.11
2022-12-03T04:25:51.194Z,46.23
2022-12-03T04:26:51.195Z,46.27
2022-12-03T04:27:51.182Z,46.29
2022-12-03T04:28:51.236Z,46.32
2022-12-03T04:29:51.196Z,46.32
2022-12-03T04:30:51.182Z,46.24
2022-12-03T04:31:51.182Z,46.18
2022-12-03T04:32:51.196Z,46.25
2022-12-03T04:33:51.196Z,46.13
2022-12-03T04:34:51.183Z,46.24
2022-12-03T04:35:51.196Z,46.22
2022-12-03T04:36:51.197Z,46.47
2022-12-03T04:37:51.197Z,46.08
2022-12-03T04:38:51.183Z,46.16
2022-12-03T04:39:51.197Z,46.14
2022-12-03T04:40:51.239Z,46.25
2022-12-03T04:41:51.196Z,46.15
2022-12-03T04:42:51.184Z,46.17
2022-12-03T04:43:51.197Z,46.18
2022-12-03T04:44:51.196Z,46.14
2022-12-03T04:45:51.197Z,46.01
2022-12-03T04:46:51.184Z,46.18
2022-12-03T04:47:51.197Z,46.3
2022-12-03T04:48:51.198Z,46.06
2022-12-03T04:49:51.184Z,46.16
2022-12-03T04:50:51.184Z,46.12
2022-12-03T04:51:51.198Z,46.01
2022-12-03T04:52:51.222Z,46.27
2022-12-03T04:53:51.185Z,46.13
2022-12-03T04:54:51.199Z,46.12
2022-12-03T04:55:51.199Z,46.2
2022-12-03T04:56:51.198Z,45.94
2022-12-03T04:57:51.185Z,46.08
2022-12-03T04:58:51.199Z,46.1
2022-12-03T04:59:51.264Z,46.17
2022-12-03T05:00:51.198Z,46.08
2022-12-03T05:01:51.186Z,46.08
2022-12-03T05:02:51.200Z,46.08
2022-12-03T05:03:51.199Z,46.36
2022-12-03T05:04:51.200Z,45.95
2022-12-03T05:05:51.186Z,46.12
2022-12-03T05:06:51.200Z,46.05
2022-12-03T05:07:51.199Z,46.07
2022-12-03T05:08:51.186Z,46.1
2022-12-03T05:09:51.187Z,46.22
2022-12-03T05:10:51.200Z,46.41
2022-12-03T05:11:51.200Z,46.32
2022-12-03T05:12:51.187Z,46.25
2022-12-03T05:13:51.201Z,46.23
2022-12-03T05:14:51.201Z,46.27
2022-12-03T05:15:51.201Z,46.07
2022-12-03T05:16:51.187Z,46.16
2022-12-03T05:17:51.201Z,46.16
2022-12-03T05:18:51.201Z,46.1
2022-12-03T05:19:51.200Z,45.89
2022-12-03T05:20:51.188Z,46.06
2022-12-03T05:21:51.202Z,46.15
2022-12-03T05:22:51.201Z,46.02
2022-12-03T05:23:51.201Z,46.01
2022-12-03T05:24:51.188Z,46.1
2022-12-03T05:25:51.226Z,46.12
2022-12-03T05:26:51.201Z,46.16
2022-12-03T05:27:51.189Z,46.39
2022-12-03T05:28:51.189Z,46.24
2022-12-03T05:29:51.203Z,46.47
2022-12-03T05:30:51.203Z,46.27
2022-12-03T05:31:51.189Z,46.27
2022-12-03T05:32:51.227Z,46.29
2022-12-03T05:33:51.203Z,46.41
2022-12-03T05:34:51.202Z,46.27
2022-12-03T05:35:51.189Z,46.36
2022-12-03T05:36:51.202Z,46.41
2022-12-03T05:37:51.203Z,46.5
2022-12-03T05:38:51.203Z,46.2
2022-12-03T05:39:51.190Z,46.37
2022-12-03T05:40:51.204Z,46.35
2022-12-03T05:41:51.203Z,46.22
2022-12-03T05:42:51.203Z,46.23
2022-12-03T05:43:51.190Z,46.29
2022-12-03T05:44:51.204Z,46.19
2022-12-03T05:45:51.205Z,46.27
2022-12-03T05:46:51.191Z,46.33
2022-12-03T05:47:51.191Z,46.23
2022-12-03T05:48:51.205Z,45.97
2022-12-03T05:49:51.205Z,46.36
2022-12-03T05:50:51.191Z,46.21
2022-12-03T05:51:51.192Z,46.23
2022-12-03T05:52:51.205Z,46.38
2022-12-03T05:53:51.205Z,46.23
2022-12-03T05:54:51.192Z,46.17
2022-12-03T05:55:51.206Z,46.15
2022-12-03T05:56:51.205Z,46.08
2022-12-03T05:57:51.205Z,46.28
2022-12-03T05:58:51.192Z,46.13
2022-12-03T05:59:51.206Z,46.18
2022-12-03T06:00:51.207Z,45.9
2022-12-03T06:01:51.205Z,46
2022-12-03T06:02:51.193Z,46.11
2022-12-03T06:03:51.206Z,46.28
2022-12-03T06:04:51.206Z,46.32
2022-12-03T06:05:51.193Z,46.2
2022-12-03T06:06:51.194Z,46.21
2022-12-03T06:07:51.207Z,46.13
2022-12-03T06:08:51.207Z,46.17
2022-12-03T06:09:51.193Z,46.25
2022-12-03T06:10:51.247Z,46.26
2022-12-03T06:11:51.207Z,46.09
2022-12-03T06:12:51.206Z,46.14
2022-12-03T06:13:51.194Z,46.21
2022-12-03T06:14:51.208Z,46.22
2022-12-03T06:15:51.208Z,46.38
2022-12-03T06:16:51.207Z,46.37
2022-12-03T06:17:51.194Z,46.27
2022-12-03T06:18:51.208Z,46.36
2022-12-03T06:19:51.208Z,46.39
2022-12-03T06:20:51.208Z,46.31
2022-12-03T06:21:51.195Z,46.24
2022-12-03T06:22:51.209Z,46.08
2022-12-03T06:23:51.209Z,46.28
2022-12-03T06:24:51.195Z,46.31
2022-12-03T06:25:51.195Z,46.28
2022-12-03T06:26:51.209Z,46.53
2022-12-03T06:27:51.209Z,46.51
2022-12-03T06:28:51.195Z,46.35
2022-12-03T06:29:51.209Z,46.34
2022-12-03T06:30:51.208Z,46.35
2022-12-03T06:31:51.208Z,46.43
2022-12-03T06:32:51.196Z,46.4
2022-12-03T06:33:51.210Z,46.53
2022-12-03T06:34:51.209Z,46.25
2022-12-03T06:35:51.209Z,46.47
2022-12-03T06:36:51.197Z,46.39
2022-12-03T06:37:51.210Z,46.29
2022-12-03T06:38:51.210Z,46.51
2022-12-03T06:39:51.209Z,46.56
2022-12-03T06:40:51.197Z,46.51
2022-12-03T06:41:51.211Z,46.61
2022-12-03T06:42:51.210Z,46.61
2022-12-03T06:43:51.197Z,46.49
2022-12-03T06:44:51.197Z,46.51
2022-12-03T06:45:51.211Z,46.48
2022-12-03T06:46:51.210Z,46.73
2022-12-03T06:47:51.198Z,46.62
2022-12-03T06:48:51.199Z,46.63
2022-12-03T06:49:51.211Z,46.62
2022-12-03T06:50:51.211Z,46.69
2022-12-03T06:51:51.198Z,46.65
2022-12-03T06:52:51.212Z,46.6
2022-12-03T06:53:51.212Z,46.49
2022-12-03T06:54:51.212Z,46.45
2022-12-03T06:55:51.198Z,46.51
2022-12-03T06:56:51.212Z,46.47
2022-12-03T06:57:51.212Z,46.5
2022-12-03T06:58:51.211Z,46.29
2022-12-03T06:59:51.200Z,46.39
2022-12-03T07:00:51.213Z,46.37
2022-12-03T07:01:51.212Z,46.52
2022-12-03T07:02:51.199Z,46.22
2022-12-03T07:03:51.199Z,46.33
2022-12-03T07:04:51.213Z,46.39
2022-12-03T07:05:51.212Z,46.27
2022-12-03T07:06:51.200Z,46.44
2022-12-03T07:07:51.276Z,46.45
2022-12-03T07:08:51.214Z,46.62
2022-12-03T07:09:51.214Z,46.49
2022-12-03T07:10:51.200Z,46.54
2022-12-03T07:11:51.214Z,46.43
2022-12-03T07:12:51.214Z,46.74
2022-12-03T07:13:51.213Z,46.52
2022-12-03T07:14:51.201Z,46.51
2022-12-03T07:15:51.214Z,46.54
2022-12-03T07:17:51.213Z,46.36
2022-12-03T07:18:51.201Z,46.45
2022-12-03T07:19:51.223Z,46.39
2022-12-03T07:20:51.214Z,46.54
2022-12-03T07:21:51.202Z,46.24
2022-12-03T07:22:51.201Z,46.34
2022-12-03T07:23:51.214Z,46.58
2022-12-03T07:24:51.215Z,46.61
2022-12-03T07:25:51.202Z,46.53
2022-12-03T07:26:51.216Z,46.6
2022-12-03T07:27:51.215Z,46.69
2022-12-03T07:28:51.215Z,46.64
2022-12-03T07:29:51.202Z,46.62
2022-12-03T07:30:51.216Z,46.69
2022-12-03T07:31:51.257Z,46.62
2022-12-03T07:32:51.216Z,46.77
2022-12-03T07:33:51.203Z,46.71
2022-12-03T07:34:51.216Z,46.63
2022-12-03T07:35:51.216Z,46.83
2022-12-03T07:36:51.216Z,46.75
2022-12-03T07:37:51.203Z,46.75
2022-12-03T07:38:51.217Z,46.8
2022-12-03T07:39:51.216Z,46.83
2022-12-03T07:40:51.203Z,46.84
2022-12-03T07:41:51.203Z,46.71
2022-12-03T07:42:51.217Z,46.64
2022-12-03T07:43:51.216Z,46.53
2022-12-03T07:44:51.204Z,46.56
2022-12-03T07:45:51.258Z,46.53
2022-12-03T07:46:51.218Z,46.72
2022-12-03T07:47:51.217Z,46.37
2022-12-03T07:48:51.204Z,46.54
2022-12-03T07:49:51.218Z,46.57
2022-12-03T07:50:51.217Z,46.57
2022-12-03T07:51:51.218Z,46.63
2022-12-03T07:52:51.205Z,46.59
2022-12-03T07:53:51.218Z,46.58
2022-12-03T07:54:51.217Z,46.43
2022-12-03T07:55:51.219Z,46.59
2022-12-03T07:56:51.205Z,46.61
2022-12-03T07:57:51.219Z,46.59
2022-12-03T07:58:51.219Z,46.4
2022-12-03T07:59:51.206Z,46.4
2022-12-03T08:00:51.205Z,46.55
2022-12-03T08:01:51.219Z,46.49
2022-12-03T08:02:51.219Z,46.78
2022-12-03T08:03:51.206Z,46.64
2022-12-03T08:04:51.220Z,46.62
2022-12-03T08:05:51.219Z,46.6
2022-12-03T08:06:51.219Z,46.51
2022-12-03T08:07:51.206Z,46.67
2022-12-03T08:08:51.220Z,46.6
2022-12-03T08:09:51.219Z,46.59
2022-12-03T08:10:51.219Z,46.71
2022-12-03T08:11:51.207Z,46.62
2022-12-03T08:12:51.220Z,46.61
2022-12-03T08:13:51.220Z,46.61
2022-12-03T08:14:51.220Z,46.59
2022-12-03T08:15:51.207Z,46.63
2022-12-03T08:16:51.221Z,46.72
2022-12-03T08:17:51.221Z,46.53
2022-12-03T08:18:51.207Z,46.57
2022-12-03T08:19:51.208Z,46.61
2022-12-03T08:20:51.221Z,46.8
2022-12-03T08:21:51.221Z,46.61
2022-12-03T08:22:51.208Z,46.46
2022-12-03T08:23:51.221Z,46.42
2022-12-03T08:24:51.221Z,46.3
2022-12-03T08:25:51.221Z,46.45
2022-12-03T08:26:51.208Z,46.37
2022-12-03T08:27:51.221Z,46.39
2022-12-03T08:28:51.222Z,46.44
2022-12-03T08:29:51.221Z,46.33
2022-12-03T08:30:51.209Z,46.29
2022-12-03T08:31:51.223Z,46.32
2022-12-03T08:32:51.223Z,46.39
2022-12-03T08:33:51.236Z,46.41
2022-12-03T08:34:51.209Z,46.45
2022-12-03T08:35:51.223Z,46.4
2022-12-03T08:36:51.223Z,46.54
2022-12-03T08:37:51.209Z,46.38
2022-12-03T08:38:51.210Z,46.48
2022-12-03T08:39:51.223Z,46.44
2022-12-03T08:40:51.223Z,46.37
2022-12-03T08:41:51.210Z,46.43
2022-12-03T08:42:51.264Z,46.39
2022-12-03T08:43:51.224Z,46.5
2022-12-03T08:44:51.224Z,46.38
2022-12-03T08:45:51.210Z,46.42
2022-12-03T08:46:51.224Z,46.53
2022-12-03T08:47:51.224Z,46.33
2022-12-03T08:48:51.224Z,46.55
2022-12-03T08:49:51.211Z,46.37
2022-12-03T08:50:51.225Z,46.54
2022-12-03T08:51:51.225Z,46.32
2022-12-03T08:52:51.225Z,46.3
2022-12-03T08:53:51.212Z,46.27
2022-12-03T08:54:51.225Z,46.14
2022-12-03T08:55:51.225Z,46.25
2022-12-03T08:56:51.211Z,46.23
2022-12-03T08:58:51.225Z,46.22
2022-12-03T08:59:51.225Z,46.26
2022-12-03T09:00:51.212Z,46.17
2022-12-03T09:01:51.226Z,46.18
2022-12-03T09:02:51.226Z,46.1
2022-12-03T09:03:51.226Z,46.07
2022-12-03T09:04:51.212Z,46.19
2022-12-03T09:05:51.225Z,46.12
2022-12-03T09:06:51.225Z,46.17
2022-12-03T09:07:51.225Z,46.12
2022-12-03T09:08:51.213Z,46.26
2022-12-03T09:09:51.226Z,46.12
2022-12-03T09:10:51.227Z,46.27
2022-12-03T09:11:51.213Z,46.23
2022-12-03T09:12:51.213Z,46.16
2022-12-03T09:13:51.226Z,46.38
2022-12-03T09:14:51.227Z,46.08
2022-12-03T09:15:51.214Z,46.05
2022-12-03T09:16:51.214Z,45.98
2022-12-03T09:17:51.227Z,45.91
2022-12-03T09:18:51.228Z,45.9
2022-12-03T09:19:51.214Z,45.83
2022-12-03T09:20:51.228Z,45.84
2022-12-03T09:21:51.228Z,45.77
2022-12-03T09:22:51.228Z,45.94
2022-12-03T09:23:51.214Z,46.01
2022-12-03T09:24:51.228Z,46.1
2022-12-03T09:25:51.227Z,46.25
2022-12-03T09:26:51.228Z,46.07
2022-12-03T09:27:51.216Z,46.25
2022-12-03T09:28:51.228Z,46.39
2022-12-03T09:29:51.229Z,46.32
2022-12-03T09:30:51.215Z,46.28
2022-12-03T09:31:51.215Z,46.27
2022-12-03T09:32:51.228Z,46.31
2022-12-03T09:33:51.228Z,46.35
2022-12-03T09:34:51.216Z,46.26
2022-12-03T09:35:51.293Z,46.18
2022-12-03T09:36:51.230Z,46.13
2022-12-03T09:37:51.229Z,46.24
2022-12-03T09:39:51.230Z,46.22
2022-12-03T09:40:51.230Z,46.3
2022-12-03T09:41:51.229Z,46.26
2022-12-03T09:42:51.216Z,46.23
2022-12-03T09:43:51.230Z,46.28
2022-12-03T09:44:51.229Z,46.23
2022-12-03T09:45:51.230Z,46.36
2022-12-03T09:46:51.217Z,46.4
2022-12-03T09:47:51.231Z,46.33
2022-12-03T09:48:51.231Z,46.35
2022-12-03T09:49:51.231Z,46.38
2022-12-03T09:50:51.217Z,46.44
2022-12-03T09:51:51.230Z,46.33
2022-12-03T09:52:51.231Z,46.35
2022-12-03T09:53:51.218Z,46.43
2022-12-03T09:54:51.218Z,46.32
2022-12-03T09:55:51.231Z,46.48
2022-12-03T09:56:51.231Z,46.45
2022-12-03T09:57:51.218Z,46.43
2022-12-03T09:58:51.231Z,46.5
2022-12-03T09:59:51.232Z,46.62
2022-12-03T10:00:51.231Z,46.48
2022-12-03T10:01:51.219Z,46.61
2022-12-03T10:02:51.232Z,46.49
2022-12-03T10:03:51.232Z,46.62
2022-12-03T10:04:51.233Z,46.56
2022-12-03T10:05:51.219Z,46.32
2022-12-03T10:06:51.232Z,46.37
2022-12-03T10:07:51.232Z,46.2
2022-12-03T10:08:51.220Z,46.28
2022-12-03T10:09:51.219Z,46.11
2022-12-03T10:10:51.233Z,46.15
2022-12-03T10:11:51.233Z,46.11
2022-12-03T10:12:51.220Z,46.03
2022-12-03T10:13:51.221Z,46.09
2022-12-03T10:14:51.234Z,46.27
2022-12-03T10:15:51.234Z,46.21
2022-12-03T10:16:51.220Z,46.23
2022-12-03T10:17:51.234Z,46.24
2022-12-03T10:18:51.233Z,46.28
2022-12-03T10:19:51.233Z,46.27
2022-12-03T10:20:51.222Z,46.16
2022-12-03T10:21:51.234Z,46.14
2022-12-03T10:22:51.234Z,46.29
2022-12-03T10:23:51.234Z,46.07
2022-12-03T10:24:51.221Z,46.19
2022-12-03T10:25:51.299Z,46.21
2022-12-03T10:26:51.235Z,46.25
2022-12-03T10:27:51.222Z,46.18
2022-12-03T10:28:51.221Z,46.29
2022-12-03T10:29:51.234Z,46.25
2022-12-03T10:30:51.236Z,46.19
2022-12-03T10:31:51.222Z,46.24
2022-12-03T10:32:51.236Z,46.18
2022-12-03T10:33:51.236Z,46.04
2022-12-03T10:34:51.236Z,46.16
2022-12-03T10:35:51.222Z,46.14
2022-12-03T10:36:56.869Z,46.37
2022-12-03T10:37:51.236Z,46.19
2022-12-03T10:38:51.235Z,46.39
2022-12-03T10:39:51.223Z,46.14
2022-12-03T10:40:51.236Z,45.88
2022-12-03T10:41:51.237Z,45.89
2022-12-03T10:42:51.236Z,45.92
2022-12-03T10:43:51.223Z,45.97
2022-12-03T10:44:51.237Z,45.86
2022-12-03T10:45:51.238Z,45.99
2022-12-03T10:46:51.223Z,45.97
2022-12-03T10:47:51.224Z,45.99
2022-12-03T10:48:51.236Z,46.06
2022-12-03T10:49:51.237Z,46.08
2022-12-03T10:50:51.224Z,46.01
2022-12-03T10:51:51.224Z,46.04
2022-12-03T10:52:51.237Z,46.21
2022-12-03T10:53:51.237Z,45.97
2022-12-03T10:54:51.224Z,46.07
2022-12-03T10:55:51.237Z,46.06
2022-12-03T10:56:51.238Z,45.93
2022-12-03T10:57:51.237Z,46.24
2022-12-03T10:58:51.225Z,46.17
2022-12-03T10:59:51.239Z,46.29
2022-12-03T11:00:51.240Z,46.02
2022-12-03T11:01:51.238Z,46.11
2022-12-03T11:02:51.225Z,45.91
2022-12-03T11:03:51.238Z,45.96
2022-12-03T11:04:51.239Z,45.99
2022-12-03T11:05:51.225Z,45.89
2022-12-03T11:06:51.226Z,45.92
2022-12-03T11:07:51.239Z,45.92
2022-12-03T11:08:51.240Z,45.87
2022-12-03T11:09:51.226Z,45.83
2022-12-03T11:10:51.226Z,45.83
2022-12-03T11:11:51.239Z,45.94
2022-12-03T11:12:51.240Z,45.99
2022-12-03T11:13:51.226Z,45.87
2022-12-03T11:14:51.240Z,45.87
2022-12-03T11:15:51.239Z,45.91
2022-12-03T11:16:51.240Z,46.01
2022-12-03T11:17:51.227Z,46.04
2022-12-03T11:18:51.241Z,46.21
2022-12-03T11:19:51.240Z,46.07
2022-12-03T11:20:51.240Z,46.25
2022-12-03T11:21:51.227Z,46.06
2022-12-03T11:22:51.241Z,45.98
2022-12-03T11:23:51.240Z,46.07
2022-12-03T11:24:51.228Z,45.91
2022-12-03T11:25:51.228Z,46.05
2022-12-03T11:26:51.242Z,46.25
2022-12-03T11:27:51.242Z,46.4
2022-12-03T11:28:51.228Z,46.44
2022-12-03T11:29:51.228Z,46.61
2022-12-03T11:30:51.242Z,46.76
2022-12-03T11:31:51.241Z,46.7
2022-12-03T11:32:51.228Z,46.71
2022-12-03T11:33:51.242Z,46.71
2022-12-03T11:34:51.242Z,46.59
2022-12-03T11:35:51.243Z,46.85
2022-12-03T11:36:54.635Z,46.71
2022-12-03T11:37:51.242Z,46.75
2022-12-03T11:38:51.243Z,46.62
2022-12-03T11:39:51.242Z,46.6
2022-12-03T11:40:51.229Z,46.44
2022-12-03T11:41:51.243Z,46.29
2022-12-03T11:42:51.244Z,46.32
2022-12-03T11:43:51.242Z,46.4
2022-12-03T11:44:51.230Z,46.57
2022-12-03T11:45:51.244Z,46.57
2022-12-03T11:46:51.243Z,46.75
2022-12-03T11:47:51.230Z,46.86
2022-12-03T11:48:51.230Z,46.7
2022-12-03T11:49:51.244Z,46.64
2022-12-03T11:50:51.243Z,46.49
2022-12-03T11:52:51.244Z,46.37
2022-12-03T11:53:51.245Z,46.22
2022-12-03T11:54:51.244Z,46.15
2022-12-03T11:55:51.231Z,46.13
2022-12-03T11:56:51.245Z,46.33
2022-12-03T11:57:51.244Z,46.28
2022-12-03T11:58:51.244Z,46.21
2022-12-03T11:59:51.232Z,46.27
2022-12-03T12:00:51.245Z,46.24
2022-12-03T12:01:51.244Z,46.27
2022-12-03T12:02:51.245Z,45.96
2022-12-03T12:03:51.232Z,45.92
2022-12-03T12:04:51.246Z,46.08
2022-12-03T12:05:51.246Z,46.09
2022-12-03T12:06:51.232Z,45.89
2022-12-03T12:07:51.233Z,45.9
2022-12-03T12:08:51.245Z,45.93
2022-12-03T12:09:51.245Z,45.87
2022-12-03T12:10:51.233Z,45.67
2022-12-03T12:11:51.247Z,45.61
2022-12-03T12:13:51.246Z,45.42
2022-12-03T12:14:51.233Z,45.49
2022-12-03T12:15:51.247Z,45.53
2022-12-03T12:16:51.246Z,45.87
2022-12-03T12:17:51.247Z,45.79
2022-12-03T12:18:51.234Z,45.75
2022-12-03T12:19:51.247Z,45.78
2022-12-03T12:20:51.247Z,45.66
2022-12-03T12:21:51.234Z,45.66
2022-12-03T12:22:51.234Z,45.78
2022-12-03T12:23:51.248Z,45.83
2022-12-03T12:24:51.248Z,45.88
2022-12-03T12:25:51.234Z,45.89
2022-12-03T12:26:51.312Z,45.92
2022-12-03T12:27:51.248Z,46.08
2022-12-03T12:28:51.247Z,46.01
2022-12-03T12:29:51.235Z,46.01
2022-12-03T12:30:51.249Z,45.95
2022-12-03T12:31:51.249Z,46.05
2022-12-03T12:32:51.248Z,46.11
2022-12-03T12:33:51.235Z,46.03
2022-12-03T12:34:51.249Z,45.86
2022-12-03T12:35:51.248Z,46.13
2022-12-03T12:36:59.482Z,46.19
2022-12-03T12:37:51.236Z,46.08
2022-12-03T12:38:51.250Z,45.99
2022-12-03T12:39:51.250Z,45.93
2022-12-03T12:40:51.236Z,46.18
2022-12-03T12:41:51.236Z,46.18
2022-12-03T12:42:51.250Z,46.17
2022-12-03T12:43:51.250Z,46.19
2022-12-03T12:44:51.236Z,46.18
2022-12-03T12:45:51.237Z,46.14
2022-12-03T12:46:59.485Z,46.13
2022-12-03T12:47:51.249Z,45.86
2022-12-03T12:48:51.237Z,45.9
2022-12-03T12:49:51.251Z,45.89
2022-12-03T12:50:51.251Z,46.04
2022-12-03T12:51:51.251Z,45.83
2022-12-03T12:52:51.237Z,45.87
2022-12-03T12:53:51.251Z,45.89
2022-12-03T12:54:51.293Z,45.96
2022-12-03T12:55:51.251Z,45.82
2022-12-03T12:56:51.238Z,45.71
2022-12-03T12:57:51.252Z,45.67
2022-12-03T12:58:51.253Z,45.36
2022-12-03T12:59:51.252Z,45.69
2022-12-03T13:00:51.238Z,45.51
2022-12-03T13:01:51.252Z,45.59